Arnold, Pennsylvania
Current Conditions -  °F | °C
As of 8:14 PM on Monday 26 Jan 2015 (Local Time) from KAGC Reporting Station
Light Snow Light Snow  
Wind Chill: 14°   Ceiling: 1000
Heat Index: 23°   Visibility: 2.5mi
Dew Point: 18°   Wind: 8mph
Humidity: 81%   Direction: 320°NW
Pressure: 29.8"   Gusts: NA
Location:  40.5657°N, 79.707°W
Report Text: KAGC 270114Z AUTO 32007KT 2 1/2SM -SN OVC010 M05/M08 A2980 RMK AO2 CIG 008V015 P0000 T10501078 TSNO
Loading
Personal Weather Stations






























Interactive Weather Map New forecast layout! Learn more

10-Day Weather Forecast

Advertisements
Track Severe Weather on mobile